MPDA/DAV METAR and TAF weather

Enter ICAO airport designator
Station Type Date Time Source
MPDA METAR 2021/04/13 01:00 UTC NOAA

MPDA 130100Z 21004KT 9999 SCT018 27/25 Q1007


Station Type Date Time Source
MPDA Decoded METAR 2021/04/13 01:00 UTC NOAA

David, Panama (MPDA) 08-24N 082-25W 26M
Apr 12, 2021 - 09:00 PM EDT / 2021.04.13 0100 UTC
Wind: from the SSW (210 degrees) at 5 MPH (4 KT):0
Visibility: greater than 7 mile(s):0
Sky conditions: partly cloudy
Temperature: 80 F (27 C)
Dew Point: 77 F (25 C)
Relative Humidity: 88%
Pressure (altimeter): 29.74 in. Hg (1007 hPa)
ob: MPDA 130100Z 21004KT 9999 SCT018 27/25 Q1007
cycle: 1

Station Type Date Time Source
MPDA TAF 2021/04/13 00:51 UTC NOAA

TAF
AMD TAF
AMD MPDA 130100Z 1300/1312 CNL

Example: see airport list